PST,Max TemperatureF,Mean TemperatureF,Min TemperatureF,Max Dew PointF,MeanDew PointF,Min DewpointF,Max Humidity, Mean Humidity, Min Humidity, Max Sea Level PressureIn, Mean Sea Level PressureIn, Min Sea Level PressureIn, Max VisibilityMiles, Mean VisibilityMiles, Min VisibilityMiles, Max Wind SpeedMPH, Mean Wind SpeedMPH, Max Gust SpeedMPH,PrecipitationIn, CloudCover, Events, WindDirDegrees
2011-12-1,64,57,50,21,17,14,28,21,13,30.45,30.34,30.24,10,10,10,33,19,44,0.00,0,,7
2011-12-2,70,55,40,23,18,8,41,28,15,30.22,30.12,30.00,10,10,10,16,9,21,0.00,0,,16
2011-12-3,61,55,48,23,13,7,22,17,12,30.33,30.28,30.24,10,10,10,30,17,40,0.00,0,,1
2011-12-4,65,49,33,29,24,17,59,41,22,30.30,30.24,30.15,10,10,10,20,8,24,0.00,0,,358
2011-12-5,61,55,49,23,14,9,26,20,13,30.34,30.29,30.25,10,10,10,30,17,38,0.00,0,,5
2011-12-6,58,43,27,28,24,21,75,50,24,30.43,30.36,30.32,10,10,7,5,1,8,0.00,0,,20
2011-12-7,58,44,29,33,29,26,85,59,33,30.37,30.25,30.14,10,10,9,8,0,26,0.00,0,,124
2011-12-8,70,48,26,37,30,25,92,58,23,30.19,30.14,30.07,10,10,8,24,3,29,0.00,0,,13
2011-12-9,64,45,26,34,30,25,92,60,28,30.25,30.19,30.14,10,10,10,5,0,16,0.00,0,,38
2011-12-10,58,42,25,33,28,23,92,61,30,30.20,30.11,30.01,10,10,10,5,0,5,0.00,0,,135
2011-12-11,54,40,26,34,30,24,92,67,41,29.99,29.91,29.84,10,10,8,7,1,7,0.00,0,,156
2011-12-12,59,46,32,32,27,23,92,60,28,29.89,29.82,29.75,10,10,8,25,5,32,0.00,1,,357
2011-12-13,56,43,29,28,25,23,78,54,30,30.15,30.00,29.90,10,10,7,10,4,15,0.00,0,,15
2011-12-14,53,39,24,36,29,21,92,67,41,30.30,30.23,30.17,10,9,7,7,1,15,0.00,2,Rain,63
2011-12-15,55,48,40,42,38,30,96,73,50,30.35,30.28,30.21,10,8,4,13,5,16,0.08,4,Rain,350
2011-12-16,66,57,48,29,26,21,46,34,22,30.37,30.28,30.20,10,10,10,24,11,32,0.00,0,,355
2011-12-17,71,58,44,40,29,21,46,33,19,30.21,30.14,30.04,10,9,5,20,7,84,0.00,0,,360
2011-12-18,59,45,30,39,33,27,92,70,47,30.24,30.15,30.10,10,6,2,5,1,,0.00,0,,348
2011-12-19,63,57,51,33,25,19,50,36,21,30.25,30.16,30.09,10,10,10,32,15,39,0.00,0,,3
2011-12-20,70,61,52,31,19,8,26,20,14,30.14,30.08,30.01,10,10,10,30,15,37,0.00,0,,351
2011-12-21,61,53,45,30,14,1,62,38,14,30.32,30.18,30.05,10,10,10,28,15,35,0.00,0,,2
2011-12-22,59,52,44,19,11,5,22,18,13,30.50,30.42,30.34,10,10,10,22,10,28,0.00,0,,4
2011-12-23,55,41,27,24,21,17,75,49,22,30.58,30.53,30.50,10,10,10,6,0,6,0.00,0,,70
2011-12-24,60,43,26,31,26,22,81,55,29,30.52,30.45,30.38,10,10,8,8,2,14,0.00,0,,131
2011-12-25,56,41,25,31,26,22,88,60,32,30.47,30.39,30.32,10,10,9,7,1,21,0.00,0,,25
2011-12-26,56,40,24,29,25,21,88,57,26,30.36,30.30,30.25,10,10,10,5,1,14,0.00,1,,88
2011-12-27,59,43,27,39,32,24,85,61,36,30.39,30.33,30.25,10,10,8,7,1,30,0.00,2,,323
2011-12-28,55,51,47,39,36,34,71,59,47,30.39,30.33,30.28,10,10,9,6,0,12,T,5,,286
2011-12-29,53,46,38,43,40,35,89,74,59,30.29,30.19,30.11,10,10,6,9,1,29,T,7,Rain,33
2011-12-30,55,51,46,52,44,33,93,84,74,30.27,30.12,30.06,10,5,1,20,5,24,0.29,5,Rain,231
2011-12-31,59,47,34,35,29,25,92,61,30,30.29,30.24,30.18,10,10,10,15,5,18,0.00,0,,341